sensor_id;sensor_type;location;lat;lon;timestamp;temperature;humidity
62555;DHT22;48610;52.144;8.624;2023-05-10T00:01:16;16.00;99.90
62555;DHT22;48610;52.144;8.624;2023-05-10T00:04:16;16.00;99.90
62555;DHT22;48610;52.144;8.624;2023-05-10T00:07:17;15.90;99.90
62555;DHT22;48610;52.144;8.624;2023-05-10T00:10:18;15.60;99.90
62555;DHT22;48610;52.144;8.624;2023-05-10T00:13:18;15.60;99.90
62555;DHT22;48610;52.144;8.624;2023-05-10T00:16:19;15.70;99.90
62555;DHT22;48610;52.144;8.624;2023-05-10T00:19:20;15.80;99.90
62555;DHT22;48610;52.144;8.624;2023-05-10T00:22:20;15.80;99.90
62555;DHT22;48610;52.144;8.624;2023-05-10T00:25:21;15.80;99.90
62555;DHT22;48610;52.144;8.624;2023-05-10T00:28:22;15.80;99.90
62555;DHT22;48610;52.144;8.624;2023-05-10T00:31:22;15.70;99.90
62555;DHT22;48610;52.144;8.624;2023-05-10T00:34:23;15.60;99.90
62555;DHT22;48610;52.144;8.624;2023-05-10T00:37:25;15.60;99.90
62555;DHT22;48610;52.144;8.624;2023-05-10T00:40:25;15.60;99.90
62555;DHT22;48610;52.144;8.624;2023-05-10T00:43:26;15.60;99.90
62555;DHT22;48610;52.144;8.624;2023-05-10T00:46:26;15.40;99.90
62555;DHT22;48610;52.144;8.624;2023-05-10T00:49:28;15.40;99.90
62555;DHT22;48610;52.144;8.624;2023-05-10T00:52:29;15.50;99.90
62555;DHT22;48610;52.144;8.624;2023-05-10T00:55:30;15.60;99.90
62555;DHT22;48610;52.144;8.624;2023-05-10T00:58:31;15.60;99.90
62555;DHT22;48610;52.144;8.624;2023-05-10T01:01:32;15.60;99.90
62555;DHT22;48610;52.144;8.624;2023-05-10T01:04:33;15.70;99.90
62555;DHT22;48610;52.144;8.624;2023-05-10T01:07:33;15.70;99.90
62555;DHT22;48610;52.144;8.624;2023-05-10T01:10:34;15.50;99.90
62555;DHT22;48610;52.144;8.624;2023-05-10T01:13:38;15.50;99.90
62555;DHT22;48610;52.144;8.624;2023-05-10T01:16:40;15.40;99.90
62555;DHT22;48610;52.144;8.624;2023-05-10T01:19:42;15.40;99.90
62555;DHT22;48610;52.144;8.624;2023-05-10T01:23:16;15.40;99.90
62555;DHT22;48610;52.144;8.624;2023-05-10T01:39:37;15.20;99.90
62555;DHT22;48610;52.144;8.624;2023-05-10T01:42:53;15.10;99.90
62555;DHT22;48610;52.144;8.624;2023-05-10T01:46:09;15.10;99.90
62555;DHT22;48610;52.144;8.624;2023-05-10T01:49:25;15.00;99.90
62555;DHT22;48610;52.144;8.624;2023-05-10T01:52:28;14.90;99.90
62555;DHT22;48610;52.144;8.624;2023-05-10T01:55:32;14.90;99.90
62555;DHT22;48610;52.144;8.624;2023-05-10T01:58:34;15.10;99.90
62555;DHT22;48610;52.144;8.624;2023-05-10T02:01:36;15.20;99.90
62555;DHT22;48610;52.144;8.624;2023-05-10T02:04:39;15.10;99.90
62555;DHT22;48610;52.144;8.624;2023-05-10T02:07:41;15.10;99.90
62555;DHT22;48610;52.144;8.624;2023-05-10T02:10:42;15.00;99.90
62555;DHT22;48610;52.144;8.624;2023-05-10T02:13:46;14.90;99.90
62555;DHT22;48610;52.144;8.624;2023-05-10T02:16:48;14.80;99.90
62555;DHT22;48610;52.144;8.624;2023-05-10T02:19:51;14.80;99.90
62555;DHT22;48610;52.144;8.624;2023-05-10T02:22:54;14.80;99.90
62555;DHT22;48610;52.144;8.624;2023-05-10T02:25:57;14.80;99.90
62555;DHT22;48610;52.144;8.624;2023-05-10T02:29:03;14.50;99.90
62555;DHT22;48610;52.144;8.624;2023-05-10T02:32:04;14.40;99.90
62555;DHT22;48610;52.144;8.624;2023-05-10T02:35:07;14.40;99.90
62555;DHT22;48610;52.144;8.624;2023-05-10T02:38:09;14.50;99.90
62555;DHT22;48610;52.144;8.624;2023-05-10T02:41:11;14.30;99.90
62555;DHT22;48610;52.144;8.624;2023-05-10T02:44:14;14.30;99.90
62555;DHT22;48610;52.144;8.624;2023-05-10T02:47:16;14.40;99.90
62555;DHT22;48610;52.144;8.624;2023-05-10T02:50:18;14.30;99.90
62555;DHT22;48610;52.144;8.624;2023-05-10T02:53:23;14.30;99.90
62555;DHT22;48610;52.144;8.624;2023-05-10T02:56:32;14.10;99.90
62555;DHT22;48610;52.144;8.624;2023-05-10T02:59:34;14.30;99.90
62555;DHT22;48610;52.144;8.624;2023-05-10T03:02:35;14.40;99.90
62555;DHT22;48610;52.144;8.624;2023-05-10T03:05:36;14.40;99.90
62555;DHT22;48610;52.144;8.624;2023-05-10T03:08:37;14.30;99.90
62555;DHT22;48610;52.144;8.624;2023-05-10T03:12:04;14.20;99.90
62555;DHT22;48610;52.144;8.624;2023-05-10T03:15:18;14.30;99.90
62555;DHT22;48610;52.144;8.624;2023-05-10T03:18:27;14.20;99.90
62555;DHT22;48610;52.144;8.624;2023-05-10T03:21:29;14.20;99.90
62555;DHT22;48610;52.144;8.624;2023-05-10T03:24:30;14.10;99.90
62555;DHT22;48610;52.144;8.624;2023-05-10T03:27:33;14.10;99.90
62555;DHT22;48610;52.144;8.624;2023-05-10T03:30:35;13.90;99.90
62555;DHT22;48610;52.144;8.624;2023-05-10T03:33:46;13.90;99.90
62555;DHT22;48610;52.144;8.624;2023-05-10T03:36:47;14.00;99.90
62555;DHT22;48610;52.144;8.624;2023-05-10T03:39:48;14.00;99.90
62555;DHT22;48610;52.144;8.624;2023-05-10T03:42:48;14.00;99.90
62555;DHT22;48610;52.144;8.624;2023-05-10T03:45:49;14.00;99.90
62555;DHT22;48610;52.144;8.624;2023-05-10T03:48:49;14.00;99.90
62555;DHT22;48610;52.144;8.624;2023-05-10T03:51:50;14.00;99.90
62555;DHT22;48610;52.144;8.624;2023-05-10T03:54:51;13.90;99.90
62555;DHT22;48610;52.144;8.624;2023-05-10T03:57:51;14.00;99.90
62555;DHT22;48610;52.144;8.624;2023-05-10T04:00:54;14.00;99.90
62555;DHT22;48610;52.144;8.624;2023-05-10T04:03:54;14.00;99.90
62555;DHT22;48610;52.144;8.624;2023-05-10T04:06:55;14.00;99.90
62555;DHT22;48610;52.144;8.624;2023-05-10T04:09:55;14.00;99.90
62555;DHT22;48610;52.144;8.624;2023-05-10T04:12:56;14.00;99.90
62555;DHT22;48610;52.144;8.624;2023-05-10T04:15:56;14.10;99.90
62555;DHT22;48610;52.144;8.624;2023-05-10T04:18:57;14.00;99.90
62555;DHT22;48610;52.144;8.624;2023-05-10T04:21:58;14.10;99.90
62555;DHT22;48610;52.144;8.624;2023-05-10T04:24:59;14.10;99.90
62555;DHT22;48610;52.144;8.624;2023-05-10T04:27:59;14.10;99.90
62555;DHT22;48610;52.144;8.624;2023-05-10T04:31:08;14.00;99.90
62555;DHT22;48610;52.144;8.624;2023-05-10T04:34:08;14.10;99.90
62555;DHT22;48610;52.144;8.624;2023-05-10T04:37:09;14.20;99.90
62555;DHT22;48610;52.144;8.624;2023-05-10T04:40:10;14.20;99.90
62555;DHT22;48610;52.144;8.624;2023-05-10T04:43:10;14.00;99.90
62555;DHT22;48610;52.144;8.624;2023-05-10T04:46:11;13.90;99.90
62555;DHT22;48610;52.144;8.624;2023-05-10T04:49:11;13.80;99.90
62555;DHT22;48610;52.144;8.624;2023-05-10T04:52:12;13.80;99.90
62555;DHT22;48610;52.144;8.624;2023-05-10T04:55:13;13.80;99.90
62555;DHT22;48610;52.144;8.624;2023-05-10T04:58:14;13.80;99.90
62555;DHT22;48610;52.144;8.624;2023-05-10T05:01:14;13.60;99.90
62555;DHT22;48610;52.144;8.624;2023-05-10T05:04:15;13.60;99.90
62555;DHT22;48610;52.144;8.624;2023-05-10T05:07:16;13.70;99.90
62555;DHT22;48610;52.144;8.624;2023-05-10T05:10:16;13.70;99.90
62555;DHT22;48610;52.144;8.624;2023-05-10T05:13:17;13.60;99.90
62555;DHT22;48610;52.144;8.624;2023-05-10T05:16:17;13.60;99.90
62555;DHT22;48610;52.144;8.624;2023-05-10T05:19:19;13.60;99.90
62555;DHT22;48610;52.144;8.624;2023-05-10T05:22:20;13.60;99.90
62555;DHT22;48610;52.144;8.624;2023-05-10T05:25:27;13.60;99.90
62555;DHT22;48610;52.144;8.624;2023-05-10T05:28:28;13.70;99.90
62555;DHT22;48610;52.144;8.624;2023-05-10T05:31:33;13.80;99.90
62555;DHT22;48610;52.144;8.624;2023-05-10T05:34:33;13.90;99.90
62555;DHT22;48610;52.144;8.624;2023-05-10T05:37:34;13.90;99.90
62555;DHT22;48610;52.144;8.624;2023-05-10T05:40:35;14.00;99.90
62555;DHT22;48610;52.144;8.624;2023-05-10T05:43:36;13.80;99.90
62555;DHT22;48610;52.144;8.624;2023-05-10T05:46:36;13.70;99.90
62555;DHT22;48610;52.144;8.624;2023-05-10T05:49:37;13.80;99.90
62555;DHT22;48610;52.144;8.624;2023-05-10T05:52:37;13.70;99.90
62555;DHT22;48610;52.144;8.624;2023-05-10T05:55:38;13.80;99.90
62555;DHT22;48610;52.144;8.624;2023-05-10T05:58:39;13.70;99.90
62555;DHT22;48610;52.144;8.624;2023-05-10T06:01:40;13.70;99.90
62555;DHT22;48610;52.144;8.624;2023-05-10T06:04:40;13.70;99.90
62555;DHT22;48610;52.144;8.624;2023-05-10T06:07:41;13.80;99.90
62555;DHT22;48610;52.144;8.624;2023-05-10T06:10:42;13.70;99.90
62555;DHT22;48610;52.144;8.624;2023-05-10T06:13:43;13.70;99.90
62555;DHT22;48610;52.144;8.624;2023-05-10T06:16:43;13.90;99.90
62555;DHT22;48610;52.144;8.624;2023-05-10T06:19:44;13.80;99.90
62555;DHT22;48610;52.144;8.624;2023-05-10T06:22:45;13.60;99.90
62555;DHT22;48610;52.144;8.624;2023-05-10T06:25:45;13.60;99.90
62555;DHT22;48610;52.144;8.624;2023-05-10T06:28:46;13.70;99.90
62555;DHT22;48610;52.144;8.624;2023-05-10T06:31:46;13.70;99.90
62555;DHT22;48610;52.144;8.624;2023-05-10T06:34:47;13.80;99.90
62555;DHT22;48610;52.144;8.624;2023-05-10T06:37:49;13.90;99.90
62555;DHT22;48610;52.144;8.624;2023-05-10T06:40:52;14.00;99.90
62555;DHT22;48610;52.144;8.624;2023-05-10T06:43:53;14.00;99.90
62555;DHT22;48610;52.144;8.624;2023-05-10T06:46:54;14.10;99.90
62555;DHT22;48610;52.144;8.624;2023-05-10T06:49:56;14.00;99.90
62555;DHT22;48610;52.144;8.624;2023-05-10T06:52:56;14.00;99.90
62555;DHT22;48610;52.144;8.624;2023-05-10T06:55:57;14.00;99.90
62555;DHT22;48610;52.144;8.624;2023-05-10T06:58:57;13.90;99.90
62555;DHT22;48610;52.144;8.624;2023-05-10T07:01:58;14.00;99.90
62555;DHT22;48610;52.144;8.624;2023-05-10T07:04:58;14.00;99.90
62555;DHT22;48610;52.144;8.624;2023-05-10T07:07:59;14.10;99.90
62555;DHT22;48610;52.144;8.624;2023-05-10T07:11:04;14.00;99.90
62555;DHT22;48610;52.144;8.624;2023-05-10T07:14:04;14.10;99.90
62555;DHT22;48610;52.144;8.624;2023-05-10T07:17:05;14.00;99.90
62555;DHT22;48610;52.144;8.624;2023-05-10T07:20:06;14.10;99.90
62555;DHT22;48610;52.144;8.624;2023-05-10T07:23:07;14.10;99.90
62555;DHT22;48610;52.144;8.624;2023-05-10T07:26:08;14.10;99.90
62555;DHT22;48610;52.144;8.624;2023-05-10T07:29:09;14.00;99.90
62555;DHT22;48610;52.144;8.624;2023-05-10T07:32:10;14.10;99.90
62555;DHT22;48610;52.144;8.624;2023-05-10T07:35:11;13.90;99.90
62555;DHT22;48610;52.144;8.624;2023-05-10T07:38:11;14.00;99.90
62555;DHT22;48610;52.144;8.624;2023-05-10T07:41:12;14.00;99.90
62555;DHT22;48610;52.144;8.624;2023-05-10T07:44:13;14.10;99.90
62555;DHT22;48610;52.144;8.624;2023-05-10T07:47:13;14.20;99.90
62555;DHT22;48610;52.144;8.624;2023-05-10T07:50:14;14.40;99.90
62555;DHT22;48610;52.144;8.624;2023-05-10T07:53:15;14.60;99.90
62555;DHT22;48610;52.144;8.624;2023-05-10T07:56:25;14.50;99.90
62555;DHT22;48610;52.144;8.624;2023-05-10T07:59:26;14.30;99.90
62555;DHT22;48610;52.144;8.624;2023-05-10T08:02:27;14.40;99.90
62555;DHT22;48610;52.144;8.624;2023-05-10T08:05:28;14.50;99.90
62555;DHT22;48610;52.144;8.624;2023-05-10T08:08:28;14.40;99.90
62555;DHT22;48610;52.144;8.624;2023-05-10T08:11:29;14.50;99.90
62555;DHT22;48610;52.144;8.624;2023-05-10T08:14:30;14.60;99.90
62555;DHT22;48610;52.144;8.624;2023-05-10T08:17:30;14.40;99.90
62555;DHT22;48610;52.144;8.624;2023-05-10T08:20:31;14.60;99.90
62555;DHT22;48610;52.144;8.624;2023-05-10T08:23:31;14.70;99.90
62555;DHT22;48610;52.144;8.624;2023-05-10T08:26:33;14.50;99.90
62555;DHT22;48610;52.144;8.624;2023-05-10T08:29:34;14.50;99.90
62555;DHT22;48610;52.144;8.624;2023-05-10T08:32:34;14.70;99.90
62555;DHT22;48610;52.144;8.624;2023-05-10T08:35:35;14.70;99.90
62555;DHT22;48610;52.144;8.624;2023-05-10T08:38:37;14.90;99.90
62555;DHT22;48610;52.144;8.624;2023-05-10T08:41:39;14.80;99.90
62555;DHT22;48610;52.144;8.624;2023-05-10T08:44:40;14.80;99.90
62555;DHT22;48610;52.144;8.624;2023-05-10T08:47:42;14.90;99.90
62555;DHT22;48610;52.144;8.624;2023-05-10T08:50:44;15.30;99.90
62555;DHT22;48610;52.144;8.624;2023-05-10T08:53:46;15.30;99.90
62555;DHT22;48610;52.144;8.624;2023-05-10T08:56:46;15.50;99.90
62555;DHT22;48610;52.144;8.624;2023-05-10T08:59:47;15.40;99.90
62555;DHT22;48610;52.144;8.624;2023-05-10T09:02:49;15.40;99.90
62555;DHT22;48610;52.144;8.624;2023-05-10T09:05:50;15.10;99.90
62555;DHT22;48610;52.144;8.624;2023-05-10T09:08:52;15.10;99.90
62555;DHT22;48610;52.144;8.624;2023-05-10T09:11:53;14.90;99.90
62555;DHT22;48610;52.144;8.624;2023-05-10T09:14:54;14.90;99.90
62555;DHT22;48610;52.144;8.624;2023-05-10T09:17:56;14.80;99.90
62555;DHT22;48610;52.144;8.624;2023-05-10T09:20:58;14.70;99.90
62555;DHT22;48610;52.144;8.624;2023-05-10T09:24:03;15.00;99.90
62555;DHT22;48610;52.144;8.624;2023-05-10T09:27:04;15.10;99.90
62555;DHT22;48610;52.144;8.624;2023-05-10T09:30:05;15.30;99.90
62555;DHT22;48610;52.144;8.624;2023-05-10T09:33:06;15.30;99.90
62555;DHT22;48610;52.144;8.624;2023-05-10T09:36:08;15.60;99.90
62555;DHT22;48610;52.144;8.624;2023-05-10T09:39:09;15.70;99.90
62555;DHT22;48610;52.144;8.624;2023-05-10T09:42:09;15.30;99.90
62555;DHT22;48610;52.144;8.624;2023-05-10T09:45:10;15.40;99.90
62555;DHT22;48610;52.144;8.624;2023-05-10T09:48:11;15.60;99.90
62555;DHT22;48610;52.144;8.624;2023-05-10T09:51:22;15.60;99.90
62555;DHT22;48610;52.144;8.624;2023-05-10T09:54:23;15.50;99.90
62555;DHT22;48610;52.144;8.624;2023-05-10T09:57:24;15.80;99.90
62555;DHT22;48610;52.144;8.624;2023-05-10T10:00:27;16.20;99.90
62555;DHT22;48610;52.144;8.624;2023-05-10T10:03:28;16.10;99.90
62555;DHT22;48610;52.144;8.624;2023-05-10T10:06:38;16.20;99.90
62555;DHT22;48610;52.144;8.624;2023-05-10T10:09:39;16.40;99.90
62555;DHT22;48610;52.144;8.624;2023-05-10T10:12:41;16.70;99.90
62555;DHT22;48610;52.144;8.624;2023-05-10T10:15:42;16.80;99.90
62555;DHT22;48610;52.144;8.624;2023-05-10T10:18:44;17.30;99.90
62555;DHT22;48610;52.144;8.624;2023-05-10T10:21:44;17.50;99.90
62555;DHT22;48610;52.144;8.624;2023-05-10T10:24:45;17.50;99.90
62555;DHT22;48610;52.144;8.624;2023-05-10T10:30:53;17.40;99.90
62555;DHT22;48610;52.144;8.624;2023-05-10T10:34:35;17.70;99.90
62555;DHT22;48610;52.144;8.624;2023-05-10T10:37:46;18.00;99.90
62555;DHT22;48610;52.144;8.624;2023-05-10T10:40:47;18.00;99.90
62555;DHT22;48610;52.144;8.624;2023-05-10T10:43:48;18.00;99.90
62555;DHT22;48610;52.144;8.624;2023-05-10T10:50:08;18.00;99.90
62555;DHT22;48610;52.144;8.624;2023-05-10T10:53:10;17.90;99.90
62555;DHT22;48610;52.144;8.624;2023-05-10T10:56:12;18.20;99.90
62555;DHT22;48610;52.144;8.624;2023-05-10T10:59:27;18.30;99.90
62555;DHT22;48610;52.144;8.624;2023-05-10T11:08:47;19.20;99.90
62555;DHT22;48610;52.144;8.624;2023-05-10T11:11:52;19.10;99.90
62555;DHT22;48610;52.144;8.624;2023-05-10T11:14:57;19.60;99.90
62555;DHT22;48610;52.144;8.624;2023-05-10T11:17:58;20.00;99.90
62555;DHT22;48610;52.144;8.624;2023-05-10T11:21:00;19.80;99.90
62555;DHT22;48610;52.144;8.624;2023-05-10T11:24:13;19.60;99.90
62555;DHT22;48610;52.144;8.624;2023-05-10T11:27:14;19.40;99.90
62555;DHT22;48610;52.144;8.624;2023-05-10T11:30:15;19.50;99.90
62555;DHT22;48610;52.144;8.624;2023-05-10T11:33:19;19.60;99.90
62555;DHT22;48610;52.144;8.624;2023-05-10T11:36:23;19.80;99.90
62555;DHT22;48610;52.144;8.624;2023-05-10T11:39:27;19.50;99.90
62555;DHT22;48610;52.144;8.624;2023-05-10T11:42:28;20.00;99.90
62555;DHT22;48610;52.144;8.624;2023-05-10T11:45:32;20.20;99.90
62555;DHT22;48610;52.144;8.624;2023-05-10T11:48:33;20.40;99.90
62555;DHT22;48610;52.144;8.624;2023-05-10T11:51:34;20.10;99.90
62555;DHT22;48610;52.144;8.624;2023-05-10T11:54:51;20.00;99.90
62555;DHT22;48610;52.144;8.624;2023-05-10T11:57:53;19.50;99.90
62555;DHT22;48610;52.144;8.624;2023-05-10T12:00:54;19.20;99.90
62555;DHT22;48610;52.144;8.624;2023-05-10T12:03:56;19.20;99.90
62555;DHT22;48610;52.144;8.624;2023-05-10T12:06:59;19.20;99.90
62555;DHT22;48610;52.144;8.624;2023-05-10T12:10:26;19.50;99.90
62555;DHT22;48610;52.144;8.624;2023-05-10T12:13:28;19.80;99.90
62555;DHT22;48610;52.144;8.624;2023-05-10T12:16:29;20.30;99.90
62555;DHT22;48610;52.144;8.624;2023-05-10T12:19:40;20.40;99.90
62555;DHT22;48610;52.144;8.624;2023-05-10T12:22:44;20.20;99.90
62555;DHT22;48610;52.144;8.624;2023-05-10T12:25:45;19.60;99.90
62555;DHT22;48610;52.144;8.624;2023-05-10T12:28:45;19.50;99.90
62555;DHT22;48610;52.144;8.624;2023-05-10T12:31:57;19.50;99.90
62555;DHT22;48610;52.144;8.624;2023-05-10T12:34:58;19.80;99.90
62555;DHT22;48610;52.144;8.624;2023-05-10T12:37:59;19.90;99.90
62555;DHT22;48610;52.144;8.624;2023-05-10T12:41:04;19.30;99.90
62555;DHT22;48610;52.144;8.624;2023-05-10T12:44:05;19.10;99.90
62555;DHT22;48610;52.144;8.624;2023-05-10T12:47:06;18.80;99.90
62555;DHT22;48610;52.144;8.624;2023-05-10T12:50:07;18.80;99.90
62555;DHT22;48610;52.144;8.624;2023-05-10T12:53:07;18.80;99.90
62555;DHT22;48610;52.144;8.624;2023-05-10T12:56:08;19.00;99.90
62555;DHT22;48610;52.144;8.624;2023-05-10T12:59:09;18.80;99.90
62555;DHT22;48610;52.144;8.624;2023-05-10T13:02:10;19.00;99.90
62555;DHT22;48610;52.144;8.624;2023-05-10T13:05:10;19.10;99.90
62555;DHT22;48610;52.144;8.624;2023-05-10T13:08:13;19.30;99.90
62555;DHT22;48610;52.144;8.624;2023-05-10T13:11:14;19.40;99.90
62555;DHT22;48610;52.144;8.624;2023-05-10T13:14:17;19.50;99.90
62555;DHT22;48610;52.144;8.624;2023-05-10T13:17:19;19.60;99.90
62555;DHT22;48610;52.144;8.624;2023-05-10T13:20:20;19.60;99.90
62555;DHT22;48610;52.144;8.624;2023-05-10T13:23:21;19.80;99.90
62555;DHT22;48610;52.144;8.624;2023-05-10T13:26:21;19.60;99.90
62555;DHT22;48610;52.144;8.624;2023-05-10T13:29:22;19.40;99.90
62555;DHT22;48610;52.144;8.624;2023-05-10T13:32:23;19.50;99.90
62555;DHT22;48610;52.144;8.624;2023-05-10T13:35:24;19.50;99.90
62555;DHT22;48610;52.144;8.624;2023-05-10T13:38:25;19.40;99.90
62555;DHT22;48610;52.144;8.624;2023-05-10T13:41:26;19.20;99.90
62555;DHT22;48610;52.144;8.624;2023-05-10T13:44:26;18.90;99.90
62555;DHT22;48610;52.144;8.624;2023-05-10T13:47:27;18.90;99.90
62555;DHT22;48610;52.144;8.624;2023-05-10T13:50:29;18.90;99.90
62555;DHT22;48610;52.144;8.624;2023-05-10T13:53:30;18.70;99.90
62555;DHT22;48610;52.144;8.624;2023-05-10T13:56:31;18.50;99.90
62555;DHT22;48610;52.144;8.624;2023-05-10T13:59:31;18.50;99.90
62555;DHT22;48610;52.144;8.624;2023-05-10T14:02:32;18.40;99.90
62555;DHT22;48610;52.144;8.624;2023-05-10T14:05:33;18.10;99.90
62555;DHT22;48610;52.144;8.624;2023-05-10T14:08:34;17.30;99.90
62555;DHT22;48610;52.144;8.624;2023-05-10T14:11:35;16.70;99.90
62555;DHT22;48610;52.144;8.624;2023-05-10T14:14:35;16.30;99.90
62555;DHT22;48610;52.144;8.624;2023-05-10T14:17:36;16.00;99.90
62555;DHT22;48610;52.144;8.624;2023-05-10T14:20:37;15.40;99.90
62555;DHT22;48610;52.144;8.624;2023-05-10T14:23:38;15.30;99.90
62555;DHT22;48610;52.144;8.624;2023-05-10T14:26:38;15.20;99.90
62555;DHT22;48610;52.144;8.624;2023-05-10T14:29:39;15.40;99.90
62555;DHT22;48610;52.144;8.624;2023-05-10T14:32:40;15.40;99.90
62555;DHT22;48610;52.144;8.624;2023-05-10T14:35:40;15.70;99.90
62555;DHT22;48610;52.144;8.624;2023-05-10T14:38:41;15.60;99.90
62555;DHT22;48610;52.144;8.624;2023-05-10T14:41:41;15.50;99.90
62555;DHT22;48610;52.144;8.624;2023-05-10T14:44:43;15.80;99.90
62555;DHT22;48610;52.144;8.624;2023-05-10T14:47:43;15.80;99.90
62555;DHT22;48610;52.144;8.624;2023-05-10T14:50:45;15.60;99.90
62555;DHT22;48610;52.144;8.624;2023-05-10T14:53:46;15.60;99.90
62555;DHT22;48610;52.144;8.624;2023-05-10T14:56:46;15.60;99.90
62555;DHT22;48610;52.144;8.624;2023-05-10T14:59:50;15.70;99.90
62555;DHT22;48610;52.144;8.624;2023-05-10T15:02:50;15.60;99.90
62555;DHT22;48610;52.144;8.624;2023-05-10T15:05:51;15.90;99.90
62555;DHT22;48610;52.144;8.624;2023-05-10T15:08:52;16.00;99.90
62555;DHT22;48610;52.144;8.624;2023-05-10T15:11:53;15.90;99.90
62555;DHT22;48610;52.144;8.624;2023-05-10T15:14:54;16.00;99.90
62555;DHT22;48610;52.144;8.624;2023-05-10T15:17:55;16.30;99.90
62555;DHT22;48610;52.144;8.624;2023-05-10T15:20:55;16.30;99.90
62555;DHT22;48610;52.144;8.624;2023-05-10T15:23:56;16.10;99.90
62555;DHT22;48610;52.144;8.624;2023-05-10T15:26:56;16.20;99.90
62555;DHT22;48610;52.144;8.624;2023-05-10T15:29:57;16.50;99.90
62555;DHT22;48610;52.144;8.624;2023-05-10T15:32:59;16.40;99.90
62555;DHT22;48610;52.144;8.624;2023-05-10T15:36:00;16.70;99.90
62555;DHT22;48610;52.144;8.624;2023-05-10T15:39:01;16.90;99.90
62555;DHT22;48610;52.144;8.624;2023-05-10T15:42:01;16.90;99.90
62555;DHT22;48610;52.144;8.624;2023-05-10T15:45:03;17.10;99.90
62555;DHT22;48610;52.144;8.624;2023-05-10T15:48:04;16.90;99.90
62555;DHT22;48610;52.144;8.624;2023-05-10T15:51:05;16.80;99.90
62555;DHT22;48610;52.144;8.624;2023-05-10T15:54:05;16.90;99.90
62555;DHT22;48610;52.144;8.624;2023-05-10T15:57:06;16.90;99.90
62555;DHT22;48610;52.144;8.624;2023-05-10T16:00:09;16.80;99.90
62555;DHT22;48610;52.144;8.624;2023-05-10T16:03:10;16.80;99.90
62555;DHT22;48610;52.144;8.624;2023-05-10T16:06:10;16.90;99.90
62555;DHT22;48610;52.144;8.624;2023-05-10T16:09:11;16.90;99.90
62555;DHT22;48610;52.144;8.624;2023-05-10T16:12:12;16.80;99.90
62555;DHT22;48610;52.144;8.624;2023-05-10T16:15:12;16.70;99.90
62555;DHT22;48610;52.144;8.624;2023-05-10T16:18:13;16.80;99.90
62555;DHT22;48610;52.144;8.624;2023-05-10T16:21:13;16.60;99.90
62555;DHT22;48610;52.144;8.624;2023-05-10T16:24:14;16.50;99.90
62555;DHT22;48610;52.144;8.624;2023-05-10T16:27:15;16.40;99.90
62555;DHT22;48610;52.144;8.624;2023-05-10T16:30:16;16.30;99.90
62555;DHT22;48610;52.144;8.624;2023-05-10T16:33:16;16.40;99.90
62555;DHT22;48610;52.144;8.624;2023-05-10T16:36:17;16.40;99.90
62555;DHT22;48610;52.144;8.624;2023-05-10T16:39:18;16.40;99.90
62555;DHT22;48610;52.144;8.624;2023-05-10T16:42:18;16.10;99.90
62555;DHT22;48610;52.144;8.624;2023-05-10T16:45:19;16.00;99.90
62555;DHT22;48610;52.144;8.624;2023-05-10T16:48:19;16.00;99.90
62555;DHT22;48610;52.144;8.624;2023-05-10T16:51:20;16.00;99.90
62555;DHT22;48610;52.144;8.624;2023-05-10T16:54:21;16.10;99.90
62555;DHT22;48610;52.144;8.624;2023-05-10T16:57:21;16.20;99.90
62555;DHT22;48610;52.144;8.624;2023-05-10T17:00:22;16.40;99.90
62555;DHT22;48610;52.144;8.624;2023-05-10T17:03:23;16.40;99.90
62555;DHT22;48610;52.144;8.624;2023-05-10T17:06:23;16.40;99.90
62555;DHT22;48610;52.144;8.624;2023-05-10T17:09:24;16.40;99.90
62555;DHT22;48610;52.144;8.624;2023-05-10T17:12:25;16.40;99.90
62555;DHT22;48610;52.144;8.624;2023-05-10T17:15:25;16.20;99.90
62555;DHT22;48610;52.144;8.624;2023-05-10T17:18:26;16.00;99.90
62555;DHT22;48610;52.144;8.624;2023-05-10T17:21:26;16.00;99.90
62555;DHT22;48610;52.144;8.624;2023-05-10T17:24:27;16.10;99.90
62555;DHT22;48610;52.144;8.624;2023-05-10T17:27:29;16.00;99.90
62555;DHT22;48610;52.144;8.624;2023-05-10T17:30:29;16.00;99.90
62555;DHT22;48610;52.144;8.624;2023-05-10T17:33:32;16.10;99.90
62555;DHT22;48610;52.144;8.624;2023-05-10T17:36:32;16.00;99.90
62555;DHT22;48610;52.144;8.624;2023-05-10T17:39:33;16.00;99.90
62555;DHT22;48610;52.144;8.624;2023-05-10T17:42:34;15.90;99.90
62555;DHT22;48610;52.144;8.624;2023-05-10T17:45:35;16.10;99.90
62555;DHT22;48610;52.144;8.624;2023-05-10T17:48:35;15.90;99.90
62555;DHT22;48610;52.144;8.624;2023-05-10T17:51:36;15.80;99.90
62555;DHT22;48610;52.144;8.624;2023-05-10T17:54:37;15.90;99.90
62555;DHT22;48610;52.144;8.624;2023-05-10T17:57:37;15.70;99.90
62555;DHT22;48610;52.144;8.624;2023-05-10T18:00:38;15.70;99.90
62555;DHT22;48610;52.144;8.624;2023-05-10T18:03:39;15.60;99.90
62555;DHT22;48610;52.144;8.624;2023-05-10T18:06:40;15.70;99.90
62555;DHT22;48610;52.144;8.624;2023-05-10T18:09:41;15.50;99.90
62555;DHT22;48610;52.144;8.624;2023-05-10T18:12:41;15.60;99.90
62555;DHT22;48610;52.144;8.624;2023-05-10T18:15:42;15.40;99.90
62555;DHT22;48610;52.144;8.624;2023-05-10T18:18:43;15.30;99.90
62555;DHT22;48610;52.144;8.624;2023-05-10T18:21:43;15.30;99.90
62555;DHT22;48610;52.144;8.624;2023-05-10T18:24:44;15.30;99.90
62555;DHT22;48610;52.144;8.624;2023-05-10T18:27:46;15.40;99.90
62555;DHT22;48610;52.144;8.624;2023-05-10T18:30:47;15.30;99.90
62555;DHT22;48610;52.144;8.624;2023-05-10T18:33:47;15.20;99.90
62555;DHT22;48610;52.144;8.624;2023-05-10T18:36:48;15.20;99.90
62555;DHT22;48610;52.144;8.624;2023-05-10T18:39:49;15.20;99.90
62555;DHT22;48610;52.144;8.624;2023-05-10T18:42:50;15.20;99.90
62555;DHT22;48610;52.144;8.624;2023-05-10T18:45:51;15.30;99.90
62555;DHT22;48610;52.144;8.624;2023-05-10T18:48:53;15.30;99.90
62555;DHT22;48610;52.144;8.624;2023-05-10T18:51:54;15.30;99.90
62555;DHT22;48610;52.144;8.624;2023-05-10T18:54:55;15.30;99.90
62555;DHT22;48610;52.144;8.624;2023-05-10T18:57:55;15.20;99.90
62555;DHT22;48610;52.144;8.624;2023-05-10T19:00:56;15.20;99.90
62555;DHT22;48610;52.144;8.624;2023-05-10T19:03:58;15.20;99.90
62555;DHT22;48610;52.144;8.624;2023-05-10T19:06:58;15.20;99.90
62555;DHT22;48610;52.144;8.624;2023-05-10T19:10:01;15.30;99.90
62555;DHT22;48610;52.144;8.624;2023-05-10T19:13:02;15.20;99.90
62555;DHT22;48610;52.144;8.624;2023-05-10T19:16:04;15.20;99.90
62555;DHT22;48610;52.144;8.624;2023-05-10T19:19:05;15.20;99.90
62555;DHT22;48610;52.144;8.624;2023-05-10T19:22:06;15.20;99.90
62555;DHT22;48610;52.144;8.624;2023-05-10T19:25:07;15.20;99.90
62555;DHT22;48610;52.144;8.624;2023-05-10T19:28:08;15.10;99.90
62555;DHT22;48610;52.144;8.624;2023-05-10T19:31:08;15.10;99.90
62555;DHT22;48610;52.144;8.624;2023-05-10T19:34:09;15.10;99.90